Time;durP1;ratioP1;P1;durP2;ratioP2;P2;SDS_P1;SDS_P2;PMS_P1;PMS_P2;Temp;Humidity;BMP_temperature;BMP_pressure;BME280_temperature;BME280_humidity;BME280_pressure;Samples;Min_cycle;Max_cycle;Signal;HPM_P1;HPM_P2
2021/06/08 00:01:58;;;;;;;7.38;5.60;;;14.90;99.90;;;;;;5015565;28;20026;-77
2021/06/08 00:04:24;;;;;;;8.95;6.68;;;14.80;99.90;;;;;;5016770;28;20018;-77
2021/06/08 00:06:50;;;;;;;9.45;6.65;;;14.80;99.90;;;;;;5016864;28;20033;-77
2021/06/08 00:09:16;;;;;;;7.32;6.55;;;14.80;99.90;;;;;;5016861;28;20463;-77
2021/06/08 00:11:42;;;;;;;6.57;5.20;;;14.70;99.90;;;;;;5015335;28;20033;-77
2021/06/08 00:14:07;;;;;;;8.27;6.28;;;14.70;99.90;;;;;;5016607;28;20528;-77
2021/06/08 00:16:33;;;;;;;7.57;5.95;;;14.70;99.90;;;;;;5015196;28;20490;-77
2021/06/08 00:18:59;;;;;;;7.43;6.57;;;14.70;99.90;;;;;;5016570;28;20045;-77
2021/06/08 00:21:25;;;;;;;8.40;6.57;;;14.70;99.90;;;;;;5015400;28;20087;-77
2021/06/08 00:23:50;;;;;;;6.15;5.55;;;14.70;99.90;;;;;;5015109;28;20026;-77
2021/06/08 00:26:16;;;;;;;7.60;5.47;;;14.60;99.90;;;;;;5017222;28;20026;-77
2021/06/08 00:28:41;;;;;;;7.07;6.13;;;14.60;99.90;;;;;;5016295;28;20053;-77
2021/06/08 00:31:07;;;;;;;9.00;5.53;;;14.60;99.90;;;;;;5016663;28;20033;-77
2021/06/08 00:33:32;;;;;;;8.70;5.20;;;14.50;99.90;;;;;;5016205;28;20136;-77
2021/06/08 00:35:58;;;;;;;8.15;6.00;;;14.50;99.90;;;;;;5016096;28;20026;-78
2021/06/08 00:38:24;;;;;;;5.90;5.30;;;14.50;99.90;;;;;;5016134;28;20022;-77
2021/06/08 00:40:49;;;;;;;6.28;5.22;;;14.50;99.90;;;;;;5016272;28;20026;-77
2021/06/08 00:43:15;;;;;;;6.50;5.45;;;14.50;99.90;;;;;;5016365;28;20077;-77
2021/06/08 00:45:40;;;;;;;6.60;5.88;;;14.40;99.90;;;;;;5016333;28;20044;-77
2021/06/08 00:48:06;;;;;;;5.78;5.20;;;14.40;99.90;;;;;;5016695;28;20083;-77
2021/06/08 00:50:34;;;;;;;8.23;5.85;;;14.40;99.90;;;;;;5016283;28;20026;-77
2021/06/08 00:52:59;;;;;;;6.43;5.80;;;14.40;99.90;;;;;;5016030;28;20029;-77
2021/06/08 00:55:25;;;;;;;6.40;5.78;;;14.30;99.90;;;;;;5015915;28;20141;-77
2021/06/08 00:57:51;;;;;;;8.27;5.53;;;14.30;99.90;;;;;;5015873;28;20454;-77
2021/06/08 01:00:17;;;;;;;6.57;5.97;;;14.30;99.90;;;;;;5015755;28;20404;-77
2021/06/08 01:02:43;;;;;;;7.13;6.30;;;14.20;99.90;;;;;;5014372;28;20069;-78
2021/06/08 01:05:09;;;;;;;7.22;5.97;;;14.20;99.90;;;;;;5015866;28;20514;-78
2021/06/08 01:07:36;;;;;;;7.43;5.70;;;14.20;99.90;;;;;;5016117;28;20026;-78
2021/06/08 01:10:04;;;;;;;7.22;5.90;;;14.20;99.90;;;;;;5015835;28;20022;-78
2021/06/08 01:12:30;;;;;;;6.40;5.80;;;14.20;99.90;;;;;;5015870;28;20386;-77
2021/06/08 01:14:56;;;;;;;7.75;6.00;;;14.20;99.90;;;;;;5015738;28;20097;-77
2021/06/08 01:17:21;;;;;;;10.57;5.80;;;14.20;99.90;;;;;;5015743;28;20052;-77
2021/06/08 01:19:48;;;;;;;7.78;5.75;;;14.20;99.90;;;;;;5015439;28;20025;-77
2021/06/08 01:22:15;;;;;;;9.63;7.00;;;14.20;99.90;;;;;;5015725;28;20378;-78
2021/06/08 01:24:43;;;;;;;7.68;5.85;;;14.10;99.90;;;;;;5015381;28;20018;-78
2021/06/08 01:27:08;;;;;;;7.45;6.70;;;14.00;99.90;;;;;;5015553;28;20046;-78
2021/06/08 01:29:36;;;;;;;6.78;6.18;;;14.00;99.90;;;;;;5015547;28;20030;-77
2021/06/08 01:32:04;;;;;;;8.48;6.63;;;14.00;99.90;;;;;;5015118;28;20549;-78
2021/06/08 01:34:31;;;;;;;7.93;7.15;;;14.00;99.90;;;;;;5014063;28;20033;-78
2021/06/08 01:36:58;;;;;;;10.18;6.57;;;13.90;99.90;;;;;;5015360;28;20030;-76
2021/06/08 01:39:24;;;;;;;8.00;6.78;;;13.90;99.90;;;;;;5015512;28;20420;-78
2021/06/08 01:41:50;;;;;;;11.63;7.32;;;13.90;99.90;;;;;;5015048;28;20063;-78
2021/06/08 01:44:16;;;;;;;7.63;6.50;;;13.80;99.90;;;;;;5015193;28;20474;-78
2021/06/08 01:46:42;;;;;;;8.45;6.82;;;13.80;99.90;;;;;;5015522;28;20083;-77
2021/06/08 01:49:07;;;;;;;7.85;6.75;;;13.80;99.90;;;;;;5015164;28;20104;-78
2021/06/08 01:52:09;;;;;;;9.55;6.20;;;13.80;99.90;;;;;;5014788;28;20117;-77
2021/06/08 01:54:57;;;;;;;6.82;6.10;;;13.80;99.90;;;;;;5015056;28;20022;-77
2021/06/08 01:57:34;;;;;;;6.80;6.10;;;13.80;99.90;;;;;;5015228;28;20029;-77
2021/06/08 02:00:03;;;;;;;6.88;5.97;;;13.80;99.90;;;;;;5014965;28;20026;-77
2021/06/08 02:02:52;;;;;;;9.63;6.60;;;13.70;99.90;;;;;;5014314;28;20029;-77
2021/06/08 02:05:25;;;;;;;6.78;6.07;;;13.70;99.90;;;;;;5014576;28;20018;-77
2021/06/08 02:08:22;;;;;;;8.65;6.88;;;13.70;99.90;;;;;;5014837;28;20025;-78
2021/06/08 02:10:53;;;;;;;8.20;7.03;;;13.70;99.90;;;;;;5007496;28;20428;-77
2021/06/08 02:13:46;;;;;;;7.35;6.60;;;13.60;99.90;;;;;;5014743;28;20029;-77
2021/06/08 02:16:35;;;;;;;7.18;6.47;;;13.60;99.90;;;;;;5014545;28;20521;-77
2021/06/08 02:19:00;;;;;;;7.85;7.00;;;13.60;99.90;;;;;;5014422;28;20018;-77
2021/06/08 02:21:35;;;;;;;8.43;6.47;;;13.50;99.90;;;;;;5014262;28;20106;-77
2021/06/08 02:24:02;;;;;;;9.75;7.38;;;13.50;99.90;;;;;;5014491;28;20482;-77
2021/06/08 02:26:29;;;;;;;7.55;6.80;;;13.50;99.90;;;;;;5012938;28;20030;-77
2021/06/08 02:28:56;;;;;;;9.80;6.95;;;13.50;99.90;;;;;;5012964;28;20030;-78
2021/06/08 02:31:24;;;;;;;11.38;7.00;;;13.40;99.90;;;;;;5014338;28;20048;-78
2021/06/08 02:33:51;;;;;;;9.07;7.13;;;13.40;99.90;;;;;;5014100;28;20462;-77
2021/06/08 02:36:18;;;;;;;10.05;6.47;;;13.40;99.90;;;;;;5013933;28;20022;-78
2021/06/08 02:38:45;;;;;;;8.07;6.65;;;13.30;99.90;;;;;;5014256;28;20054;-79
2021/06/08 02:41:12;;;;;;;8.40;6.88;;;13.30;99.90;;;;;;5014336;28;20022;-78
2021/06/08 02:43:39;;;;;;;8.23;6.10;;;13.30;99.90;;;;;;5014511;28;20356;-79
2021/06/08 02:46:06;;;;;;;9.95;6.72;;;13.30;99.90;;;;;;5014561;28;20104;-79
2021/06/08 02:48:32;;;;;;;8.20;6.57;;;13.30;99.90;;;;;;5013753;28;20470;-79
2021/06/08 02:50:59;;;;;;;7.35;6.55;;;13.20;99.90;;;;;;5014032;28;20029;-78
2021/06/08 02:53:26;;;;;;;6.25;5.20;;;13.20;99.90;;;;;;5014107;28;20107;-78
2021/06/08 02:55:53;;;;;;;7.78;6.88;;;13.20;99.90;;;;;;5013742;28;20104;-78
2021/06/08 02:58:20;;;;;;;9.68;7.07;;;13.20;99.90;;;;;;5013581;28;20116;-78
2021/06/08 03:00:46;;;;;;;6.70;6.00;;;13.20;99.90;;;;;;5013845;28;20455;-78
2021/06/08 03:03:15;;;;;;;6.88;6.18;;;13.20;99.90;;;;;;5014076;28;20057;-78
2021/06/08 03:05:48;;;;;;;7.40;6.60;;;13.10;99.90;;;;;;5013904;28;20069;-78
2021/06/08 03:08:44;;;;;;;7.45;6.65;;;13.10;99.90;;;;;;5013954;28;20153;-78
2021/06/08 03:11:13;;;;;;;7.30;5.80;;;13.10;99.90;;;;;;4990533;28;20424;-78
2021/06/08 03:13:39;;;;;;;7.00;6.13;;;13.20;99.90;;;;;;5012817;28;20038;-78
2021/06/08 03:16:08;;;;;;;6.82;6.13;;;13.20;99.90;;;;;;5012098;28;20030;-77
2021/06/08 03:18:37;;;;;;;8.70;6.32;;;13.20;99.90;;;;;;5013369;28;20025;-79
2021/06/08 03:21:10;;;;;;;7.80;6.60;;;13.20;99.90;;;;;;5012162;28;20026;-78
2021/06/08 03:23:39;;;;;;;6.63;5.85;;;13.20;99.90;;;;;;5013943;28;20463;-78
2021/06/08 03:26:07;;;;;;;7.05;5.43;;;13.20;99.90;;;;;;5011619;28;20540;-83
2021/06/08 03:28:34;;;;;;;9.07;6.10;;;13.20;99.90;;;;;;5013214;28;20022;-83
2021/06/08 03:31:00;;;;;;;8.65;6.05;;;13.20;99.90;;;;;;5012249;28;20037;-83
2021/06/08 03:33:26;;;;;;;7.05;6.35;;;13.20;99.90;;;;;;5012364;28;20092;-84
2021/06/08 03:35:55;;;;;;;14.00;6.85;;;13.20;99.90;;;;;;5012724;28;20423;-83
2021/06/08 03:38:22;;;;;;;8.20;6.40;;;13.20;99.90;;;;;;4999072;28;20403;-83
2021/06/08 03:40:48;;;;;;;10.57;7.15;;;13.20;99.90;;;;;;5012481;28;20026;-83
2021/06/08 03:43:15;;;;;;;7.15;6.35;;;13.10;99.90;;;;;;5012689;28;20029;-83
2021/06/08 03:45:41;;;;;;;9.95;6.95;;;13.10;99.90;;;;;;5011287;28;20022;-83
2021/06/08 03:48:07;;;;;;;7.95;6.00;;;13.10;99.90;;;;;;5012718;28;20476;-83
2021/06/08 03:50:34;;;;;;;9.07;6.93;;;13.20;99.90;;;;;;5012289;28;20061;-83
2021/06/08 03:53:03;;;;;;;7.97;7.18;;;13.20;99.90;;;;;;5012410;28;20049;-83
2021/06/08 03:55:28;;;;;;;9.52;6.78;;;13.20;99.90;;;;;;5009901;28;20418;-83
2021/06/08 03:57:55;;;;;;;7.93;7.13;;;13.20;99.90;;;;;;5011696;28;20113;-83
2021/06/08 04:00:24;;;;;;;9.93;7.88;;;13.20;99.90;;;;;;5011706;28;20018;-83
2021/06/08 04:02:50;;;;;;;8.40;5.97;;;13.20;99.90;;;;;;5010940;28;20121;-83
2021/06/08 04:05:16;;;;;;;6.72;5.90;;;13.30;99.90;;;;;;5011332;28;20026;-83
2021/06/08 04:07:45;;;;;;;9.38;6.72;;;13.30;99.90;;;;;;5011533;28;20030;-83
2021/06/08 04:10:18;;;;;;;7.85;6.97;;;13.30;99.90;;;;;;5011233;28;20040;-84
2021/06/08 04:12:44;;;;;;;9.23;8.23;;;13.40;99.90;;;;;;5010687;28;20033;-84
2021/06/08 04:15:11;;;;;;;13.73;7.28;;;13.40;99.90;;;;;;5011200;28;20077;-84
2021/06/08 04:17:37;;;;;;;9.27;8.13;;;13.50;99.90;;;;;;5011209;28;20084;-84
2021/06/08 04:20:05;;;;;;;8.50;7.13;;;13.50;99.90;;;;;;5008250;28;20486;-84
2021/06/08 04:22:32;;;;;;;7.53;6.72;;;13.50;99.90;;;;;;5007608;28;20026;-84
2021/06/08 04:24:58;;;;;;;9.15;6.68;;;13.60;99.90;;;;;;5013804;28;20041;-79
2021/06/08 04:27:26;;;;;;;8.15;7.07;;;13.70;99.90;;;;;;5016015;28;20029;-84
2021/06/08 04:29:53;;;;;;;6.85;6.15;;;13.70;99.90;;;;;;5015488;28;20143;-78
2021/06/08 04:32:20;;;;;;;7.03;6.30;;;13.70;99.90;;;;;;5014636;28;20049;-83
2021/06/08 04:34:47;;;;;;;7.68;6.68;;;13.80;99.90;;;;;;5015083;28;20022;-84
2021/06/08 04:37:13;;;;;;;8.95;7.00;;;13.80;99.90;;;;;;5013520;28;20030;-84
2021/06/08 04:39:39;;;;;;;9.05;6.95;;;13.90;99.90;;;;;;5015124;28;20060;-78
2021/06/08 04:42:07;;;;;;;9.05;7.32;;;13.90;99.90;;;;;;5010812;28;20216;-84
2021/06/08 04:44:33;;;;;;;8.10;6.45;;;13.90;99.90;;;;;;5004798;28;20026;-79
2021/06/08 04:46:59;;;;;;;7.90;6.75;;;14.00;99.90;;;;;;4997083;28;20048;-79
2021/06/08 04:49:25;;;;;;;7.50;6.53;;;14.00;99.90;;;;;;4996833;28;20031;-80
2021/06/08 04:51:50;;;;;;;6.47;5.88;;;14.10;99.90;;;;;;5011382;28;20027;-80
2021/06/08 04:54:22;;;;;;;7.85;7.05;;;14.20;99.90;;;;;;4994878;28;20026;-80
2021/06/08 04:56:47;;;;;;;8.98;7.07;;;14.20;99.90;;;;;;4996178;28;20037;-80
2021/06/08 04:59:30;;;;;;;10.48;7.43;;;14.30;99.90;;;;;;4994969;28;20030;-80
2021/06/08 05:01:56;;;;;;;8.35;6.82;;;14.30;99.90;;;;;;4996408;28;20034;-80
2021/06/08 05:04:24;;;;;;;10.48;6.60;;;14.40;99.90;;;;;;4997159;28;20121;-80
2021/06/08 05:06:55;;;;;;;8.80;6.68;;;14.50;99.90;;;;;;4996892;28;20435;-85
2021/06/08 05:09:31;;;;;;;7.75;6.72;;;14.50;99.90;;;;;;5013715;28;20416;-81
2021/06/08 05:12:04;;;;;;;7.55;6.57;;;14.60;99.90;;;;;;5014738;28;20026;-81
2021/06/08 05:14:31;;;;;;;7.75;6.80;;;14.70;99.90;;;;;;5015815;28;20038;-81
2021/06/08 05:16:57;;;;;;;10.80;7.38;;;14.80;99.90;;;;;;5027717;28;20355;-81
2021/06/08 05:19:24;;;;;;;9.98;6.82;;;14.90;99.90;;;;;;5032831;28;20029;-85
2021/06/08 05:21:51;;;;;;;9.10;7.22;;;15.00;99.90;;;;;;5014320;28;20026;-81
2021/06/08 05:24:17;;;;;;;10.80;6.68;;;15.20;99.90;;;;;;5013476;28;20058;-81
2021/06/08 05:26:47;;;;;;;11.38;7.10;;;15.20;99.90;;;;;;5014823;28;20120;-80
2021/06/08 05:29:17;;;;;;;8.43;7.53;;;15.30;99.90;;;;;;5013949;28;20471;-80
2021/06/08 05:31:44;;;;;;;7.55;6.75;;;15.30;99.90;;;;;;5013562;28;20479;-81
2021/06/08 05:34:11;;;;;;;8.70;6.72;;;15.50;99.90;;;;;;5014592;28;20059;-85
2021/06/08 05:36:37;;;;;;;11.80;7.90;;;15.50;99.90;;;;;;5012239;28;20045;-76
2021/06/08 05:39:07;;;;;;;8.38;7.40;;;15.50;99.90;;;;;;5012052;28;20433;-75
2021/06/08 05:41:34;;;;;;;10.23;8.10;;;15.70;99.90;;;;;;5012377;28;20041;-79
2021/06/08 05:43:59;;;;;;;9.60;8.63;;;15.80;99.90;;;;;;5010691;28;20050;-74
2021/06/08 05:46:33;;;;;;;9.60;8.63;;;15.80;99.90;;;;;;5007560;28;20038;-74
2021/06/08 05:49:00;;;;;;;9.63;8.60;;;15.80;99.90;;;;;;5010425;28;20045;-73
2021/06/08 05:51:30;;;;;;;10.60;9.07;;;15.80;99.90;;;;;;5010856;28;20034;-73
2021/06/08 05:53:57;;;;;;;11.15;8.43;;;15.80;99.90;;;;;;5009319;28;20060;-74
2021/06/08 05:56:24;;;;;;;10.65;9.18;;;15.80;99.90;;;;;;5011676;28;20041;-73
2021/06/08 05:58:53;;;;;;;11.10;9.18;;;15.90;99.90;;;;;;5012989;28;20036;-74
2021/06/08 06:01:20;;;;;;;10.88;9.68;;;16.00;99.90;;;;;;5008781;28;20018;-74
2021/06/08 06:03:47;;;;;;;11.23;8.93;;;16.10;99.90;;;;;;5009358;28;20025;-74
2021/06/08 06:06:13;;;;;;;14.40;10.23;;;16.20;99.90;;;;;;5008699;28;20424;-73
2021/06/08 06:08:39;;;;;;;11.48;9.73;;;16.20;99.90;;;;;;5008779;28;20026;-74
2021/06/08 06:11:07;;;;;;;15.13;10.38;;;16.40;99.90;;;;;;5008625;28;20374;-74
2021/06/08 06:13:51;;;;;;;13.77;9.95;;;16.40;99.90;;;;;;5009016;28;20040;-74
2021/06/08 06:16:18;;;;;;;13.23;10.60;;;16.60;99.90;;;;;;5005584;28;20057;-74
2021/06/08 06:18:44;;;;;;;14.02;11.60;;;16.60;99.90;;;;;;5006412;28;20026;-74
2021/06/08 06:21:11;;;;;;;13.52;11.55;;;16.60;99.90;;;;;;5006787;28;20101;-74
2021/06/08 06:23:38;;;;;;;14.40;10.95;;;16.70;99.90;;;;;;5007540;28;20139;-74
2021/06/08 06:26:04;;;;;;;12.63;11.27;;;16.80;99.90;;;;;;5008633;28;20706;-73
2021/06/08 06:28:31;;;;;;;12.57;11.27;;;16.90;99.90;;;;;;5007278;28;20033;-74
2021/06/08 06:30:58;;;;;;;12.55;11.23;;;16.90;99.90;;;;;;5006054;28;20034;-74
2021/06/08 06:33:23;;;;;;;11.25;10.15;;;17.00;99.90;;;;;;5006225;28;20103;-74
2021/06/08 06:35:50;;;;;;;14.75;12.27;;;17.10;99.90;;;;;;5007997;28;20072;-85
2021/06/08 06:38:18;;;;;;;18.52;11.82;;;17.00;99.90;;;;;;5004138;28;20384;-85
2021/06/08 06:40:45;;;;;;;14.38;12.18;;;17.00;99.90;;;;;;5005828;28;20029;-86
2021/06/08 06:43:17;;;;;;;13.43;11.48;;;17.10;99.90;;;;;;5006956;28;20029;-85
2021/06/08 06:45:44;;;;;;;13.73;12.18;;;17.10;99.90;;;;;;5007396;28;20030;-85
2021/06/08 06:48:15;;;;;;;12.25;11.05;;;17.20;99.90;;;;;;5008112;28;20030;-80
2021/06/08 06:50:41;;;;;;;11.77;10.57;;;17.20;99.90;;;;;;5010169;28;20486;-86
2021/06/08 06:53:08;;;;;;;13.32;11.93;;;17.40;99.90;;;;;;5009381;28;20030;-86
2021/06/08 06:55:35;;;;;;;14.75;12.35;;;17.50;99.90;;;;;;5009587;28;20080;-86
2021/06/08 06:58:01;;;;;;;13.60;12.20;;;17.60;99.90;;;;;;5010135;28;20034;-82
2021/06/08 07:00:28;;;;;;;14.07;12.68;;;17.70;99.90;;;;;;5012740;28;20052;-86
2021/06/08 07:02:57;;;;;;;13.57;12.23;;;17.80;99.90;;;;;;5006014;28;20029;-85
2021/06/08 07:05:27;;;;;;;16.38;13.57;;;17.70;99.90;;;;;;5010182;28;20108;-82
2021/06/08 07:07:54;;;;;;;15.00;13.50;;;17.80;99.90;;;;;;5010027;28;20049;-81
2021/06/08 07:10:23;;;;;;;14.15;12.65;;;17.60;99.90;;;;;;5013849;28;20111;-81
2021/06/08 07:12:49;;;;;;;16.58;14.82;;;17.70;99.90;;;;;;5013557;28;20022;-80
2021/06/08 07:15:16;;;;;;;14.85;13.35;;;17.70;99.90;;;;;;5013374;28;20034;-81
2021/06/08 07:17:44;;;;;;;16.23;14.55;;;17.70;99.90;;;;;;5013649;28;20021;-80
2021/06/08 07:20:13;;;;;;;15.65;14.05;;;17.70;99.90;;;;;;5013837;28;20030;-80
2021/06/08 07:22:41;;;;;;;14.90;13.40;;;17.80;99.90;;;;;;5012686;28;20144;-86
2021/06/08 07:25:08;;;;;;;15.52;13.85;;;17.90;99.90;;;;;;5009244;28;20026;-82
2021/06/08 07:27:34;;;;;;;17.13;14.27;;;18.00;99.90;;;;;;5025159;28;20421;-81
2021/06/08 07:30:02;;;;;;;14.98;13.38;;;18.00;99.90;;;;;;5025926;28;20494;-82
2021/06/08 07:32:48;;;;;;;15.25;13.70;;;18.10;99.90;;;;;;5025792;28;20109;-82
2021/06/08 07:35:35;;;;;;;17.33;13.75;;;18.30;99.90;;;;;;4995170;28;20121;-80
2021/06/08 07:38:08;;;;;;;15.40;13.55;;;18.60;99.90;;;;;;5011862;28;20092;-80
2021/06/08 07:40:39;;;;;;;16.63;14.77;;;18.90;99.90;;;;;;5013692;28;20018;-82
2021/06/08 07:43:06;;;;;;;15.15;13.55;;;19.10;99.90;;;;;;5013222;28;20057;-82
2021/06/08 07:45:44;;;;;;;15.75;13.40;;;19.20;99.90;;;;;;5013158;28;20025;-82
2021/06/08 07:48:20;;;;;;;16.95;14.48;;;19.40;99.90;;;;;;5013471;28;20033;-82
2021/06/08 07:50:49;;;;;;;20.02;15.25;;;19.50;99.90;;;;;;5013336;28;20133;-82
2021/06/08 07:53:19;;;;;;;18.98;15.10;;;19.30;99.90;;;;;;5009691;28;20029;-87
2021/06/08 07:55:46;;;;;;;17.08;15.25;;;19.20;99.90;;;;;;5009328;28;20304;-83
2021/06/08 07:58:12;;;;;;;17.63;15.68;;;19.30;99.90;;;;;;5012084;28;20113;-82
2021/06/08 08:00:38;;;;;;;18.35;16.27;;;19.50;99.90;;;;;;5014578;28;20164;-82
2021/06/08 08:05:49;;;;;;;18.23;15.93;;;19.80;99.90;;;;;;5017153;28;20080;-82
2021/06/08 08:08:20;;;;;;;16.85;15.15;;;19.90;99.90;;;;;;5015417;28;20030;-82
2021/06/08 08:10:47;;;;;;;15.13;13.52;;;19.80;99.90;;;;;;5017432;28;20473;-82
2021/06/08 08:13:16;;;;;;;19.67;14.70;;;19.90;99.90;;;;;;5016909;28;20037;-82
2021/06/08 08:15:45;;;;;;;18.08;16.27;;;19.90;99.90;;;;;;5016943;28;20026;-82
2021/06/08 08:18:11;;;;;;;18.38;16.42;;;19.90;99.90;;;;;;5013737;28;20022;-87
2021/06/08 08:20:53;;;;;;;17.70;15.80;;;19.70;99.90;;;;;;5014111;28;20429;-86
2021/06/08 08:23:20;;;;;;;20.33;18.33;;;19.70;99.90;;;;;;5015494;28;20022;-73
2021/06/08 08:25:47;;;;;;;20.95;17.17;;;19.80;99.90;;;;;;5017237;28;20018;-75
2021/06/08 08:28:14;;;;;;;19.90;15.82;;;19.90;99.90;;;;;;5015186;28;20045;-76
2021/06/08 08:30:40;;;;;;;20.08;17.77;;;20.00;99.90;;;;;;5014282;28;20030;-74
2021/06/08 08:33:07;;;;;;;18.02;16.13;;;20.00;99.90;;;;;;5010333;28;20124;-75
2021/06/08 08:35:35;;;;;;;21.08;18.98;;;20.10;99.90;;;;;;5009134;28;20037;-73
2021/06/08 08:38:01;;;;;;;21.35;18.45;;;20.20;99.90;;;;;;5009727;28;20135;-73
2021/06/08 08:40:26;;;;;;;19.08;17.17;;;20.20;99.90;;;;;;5009993;28;20065;-72
2021/06/08 08:42:53;;;;;;;19.75;17.70;;;20.10;99.90;;;;;;5009758;28;20054;-85
2021/06/08 08:45:19;;;;;;;18.38;16.35;;;20.20;99.90;;;;;;5011106;28;20022;-85
2021/06/08 08:47:45;;;;;;;19.08;17.15;;;20.20;99.90;;;;;;5009440;28;20038;-85
2021/06/08 08:50:15;;;;;;;17.60;14.93;;;20.30;99.90;;;;;;5008530;28;20592;-85
2021/06/08 08:52:55;;;;;;;18.88;16.80;;;20.40;99.90;;;;;;5011350;28;20058;-85
2021/06/08 08:55:23;;;;;;;18.17;16.27;;;20.50;99.90;;;;;;5010999;28;20026;-85
2021/06/08 08:57:54;;;;;;;19.73;17.67;;;20.50;99.90;;;;;;5014961;28;20104;-85
2021/06/08 09:00:28;;;;;;;19.52;15.77;;;20.60;99.90;;;;;;5013315;28;20470;-80
2021/06/08 09:02:58;;;;;;;16.23;14.48;;;20.40;99.90;;;;;;5024446;28;20484;-80
2021/06/08 09:05:25;;;;;;;20.55;18.35;;;20.40;99.90;;;;;;5034307;28;20072;-80
2021/06/08 09:07:52;;;;;;;17.52;15.73;;;20.40;99.90;;;;;;5035362;28;20029;-79
2021/06/08 09:10:21;;;;;;;19.05;17.13;;;20.40;99.90;;;;;;5034050;28;20029;-79
2021/06/08 09:12:47;;;;;;;17.63;14.90;;;20.60;99.90;;;;;;5035457;28;20026;-79
2021/06/08 09:15:13;;;;;;;17.45;15.75;;;20.90;99.90;;;;;;5035410;28;20143;-80
2021/06/08 09:17:40;;;;;;;18.25;16.00;;;21.20;99.90;;;;;;5016145;28;20060;-79
2021/06/08 09:20:16;;;;;;;17.90;16.10;;;21.60;99.90;;;;;;5012213;28;20018;-86
2021/06/08 09:22:52;;;;;;;20.30;17.20;;;21.90;99.90;;;;;;5010443;28;20474;-86
2021/06/08 09:25:43;;;;;;;18.60;16.63;;;22.00;99.90;;;;;;5010477;28;20462;-86
2021/06/08 09:28:26;;;;;;;19.05;17.15;;;22.10;99.90;;;;;;5003921;28;20157;-86
2021/06/08 09:31:04;;;;;;;18.77;16.77;;;22.00;99.90;;;;;;5010844;28;20803;-86
2021/06/08 09:33:45;;;;;;;19.05;17.02;;;22.10;99.90;;;;;;5010356;28;20054;-86
2021/06/08 09:36:20;;;;;;;23.83;15.27;;;22.10;99.90;;;;;;5008823;28;20479;-86
2021/06/08 09:38:54;;;;;;;17.70;15.38;;;22.20;99.90;;;;;;5010155;28;20057;-86
2021/06/08 09:41:19;;;;;;;18.25;16.35;;;22.20;99.90;;;;;;5008595;28;20037;-85
2021/06/08 09:44:06;;;;;;;19.73;17.65;;;22.30;99.90;;;;;;5008816;28;20540;-85
2021/06/08 09:46:50;;;;;;;16.60;14.95;;;22.30;99.90;;;;;;5010538;28;20065;-85
2021/06/08 09:49:17;;;;;;;15.43;13.93;;;22.20;99.90;;;;;;5013501;28;20034;-80
2021/06/08 09:51:55;;;;;;;18.08;16.17;;;22.30;99.90;;;;;;5014818;28;20026;-80
2021/06/08 09:54:37;;;;;;;17.27;15.48;;;22.30;99.90;;;;;;5013236;28;20029;-80
2021/06/08 09:57:16;;;;;;;17.50;15.65;;;22.60;99.90;;;;;;5028483;28;20430;-81
2021/06/08 09:59:49;;;;;;;17.38;15.15;;;22.90;99.90;;;;;;5024681;28;20017;-80
2021/06/08 10:02:49;;;;;;;17.23;15.10;;;23.00;99.90;;;;;;5030390;28;20018;-84
2021/06/08 10:05:31;;;;;;;18.83;16.00;;;23.40;99.90;;;;;;5008654;28;20103;-74
2021/06/08 10:08:00;;;;;;;18.83;17.02;;;23.30;99.90;;;;;;4997169;28;20684;-73
2021/06/08 10:10:40;;;;;;;19.20;17.27;;;23.40;99.90;;;;;;5013979;28;20082;-74
2021/06/08 10:13:14;;;;;;;18.33;16.23;;;23.30;99.90;;;;;;5011060;28;20032;-74
2021/06/08 10:15:58;;;;;;;18.63;16.65;;;23.40;99.90;;;;;;5011027;28;20787;-75
2021/06/08 10:18:25;;;;;;;18.52;16.70;;;23.60;99.90;;;;;;5012855;28;20041;-78
2021/06/08 10:20:57;;;;;;;17.67;15.88;;;23.40;99.90;;;;;;5013827;28;20024;-73
2021/06/08 10:23:27;;;;;;;16.88;15.13;;;23.30;99.90;;;;;;5013752;28;20018;-73
2021/06/08 10:25:57;;;;;;;17.70;15.30;;;23.40;99.90;;;;;;5027553;28;20136;-72
2021/06/08 10:28:24;;;;;;;17.80;16.00;;;23.50;99.90;;;;;;5013849;28;20053;-73
2021/06/08 10:30:51;;;;;;;16.27;14.57;;;23.60;99.90;;;;;;5027612;28;20025;-72
2021/06/08 10:33:17;;;;;;;18.27;16.48;;;23.60;99.90;;;;;;5013351;28;20092;-71
2021/06/08 10:35:44;;;;;;;18.33;16.15;;;23.60;99.90;;;;;;5011378;28;20466;-73
2021/06/08 10:38:11;;;;;;;17.98;16.08;;;23.50;99.90;;;;;;5010587;28;20026;-73
2021/06/08 10:40:40;;;;;;;20.38;16.90;;;23.30;99.90;;;;;;5011126;28;20029;-73
2021/06/08 10:43:13;;;;;;;18.08;16.23;;;23.10;99.90;;;;;;5009981;28;20105;-73
2021/06/08 10:45:39;;;;;;;15.30;13.75;;;23.00;99.90;;;;;;5000284;28;20093;-74
2021/06/08 10:48:20;;;;;;;20.48;16.50;;;22.90;99.90;;;;;;5011910;28;20022;-74
2021/06/08 10:51:07;;;;;;;19.00;16.90;;;22.90;99.90;;;;;;5001309;28;20421;-73
2021/06/08 10:53:35;;;;;;;19.58;16.95;;;22.90;99.90;;;;;;5008079;28;20121;-73
2021/06/08 10:56:02;;;;;;;19.35;17.35;;;23.10;99.90;;;;;;5007692;28;20030;-73
2021/06/08 10:58:46;;;;;;;18.77;15.82;;;23.20;99.90;;;;;;5007375;28;20471;-72
2021/06/08 11:01:30;;;;;;;16.77;15.18;;;23.40;99.90;;;;;;5000868;28;20018;-71
2021/06/08 11:03:56;;;;;;;17.45;15.57;;;23.60;99.90;;;;;;5004987;28;21759;-71
2021/06/08 11:06:37;;;;;;;17.05;14.85;;;23.70;99.90;;;;;;5007310;28;20034;-72
2021/06/08 11:09:16;;;;;;;16.88;14.57;;;23.90;99.90;;;;;;4999442;28;20149;-72
2021/06/08 11:11:57;;;;;;;16.00;13.90;;;24.10;99.90;;;;;;5000230;28;20045;-72
2021/06/08 11:14:29;;;;;;;15.93;14.25;;;24.20;99.90;;;;;;5005069;28;20025;-72
2021/06/08 11:17:02;;;;;;;15.23;13.18;;;24.50;99.90;;;;;;5008121;28;20029;-72
2021/06/08 11:19:53;;;;;;;17.33;15.70;;;24.70;99.90;;;;;;5007984;28;20427;-72
2021/06/08 11:22:39;;;;;;;16.48;12.90;;;24.70;99.90;;;;;;5008296;28;20052;-72
2021/06/08 11:25:07;;;;;;;16.77;15.13;;;24.80;99.90;;;;;;5007627;28;20093;-72
2021/06/08 11:27:59;;;;;;;15.30;13.70;;;24.70;99.90;;;;;;5008429;28;20030;-72
2021/06/08 11:30:27;;;;;;;15.88;14.27;;;24.70;99.90;;;;;;5006882;28;20088;-71
2021/06/08 11:32:53;;;;;;;15.55;13.88;;;24.60;99.90;;;;;;5001803;28;20494;-72
2021/06/08 11:35:28;;;;;;;16.80;13.88;;;24.70;99.90;;;;;;5009520;28;20083;-72
2021/06/08 11:38:08;;;;;;;15.68;13.93;;;24.80;99.90;;;;;;5007758;28;20103;-72
2021/06/08 11:40:40;;;;;;;16.58;14.85;;;24.90;99.90;;;;;;5010973;28;20529;-72
2021/06/08 11:43:09;;;;;;;15.02;13.35;;;25.20;99.90;;;;;;5012117;28;20018;-72
2021/06/08 11:45:37;;;;;;;16.88;14.07;;;25.20;99.90;;;;;;5011674;28;20481;-73
2021/06/08 11:48:03;;;;;;;15.98;12.65;;;25.40;99.90;;;;;;5027096;28;20033;-73
2021/06/08 11:50:45;;;;;;;15.13;13.40;;;25.70;99.90;;;;;;5014578;28;20033;-73
2021/06/08 11:53:13;;;;;;;16.83;11.65;;;26.00;99.90;;;;;;5014315;28;20040;-73
2021/06/08 11:55:40;;;;;;;13.32;12.02;;;26.20;99.90;;;;;;5014905;28;20021;-73
2021/06/08 11:58:36;;;;;;;14.25;12.85;;;26.20;99.90;;;;;;5014829;28;20033;-73
2021/06/08 12:01:04;;;;;;;12.35;11.15;;;26.20;99.90;;;;;;5013796;28;20100;-73
2021/06/08 12:03:38;;;;;;;12.60;11.30;;;26.30;99.90;;;;;;5013746;28;20536;-73
2021/06/08 12:06:06;;;;;;;12.13;9.68;;;26.30;99.90;;;;;;5010650;28;20025;-73
2021/06/08 12:08:36;;;;;;;11.35;10.13;;;26.60;99.90;;;;;;5009465;28;20049;-72
2021/06/08 12:11:17;;;;;;;12.52;11.35;;;26.80;99.90;;;;;;5012457;28;20022;-73
2021/06/08 12:13:44;;;;;;;14.13;9.88;;;26.80;99.90;;;;;;5014341;28;20076;-73
2021/06/08 12:16:14;;;;;;;12.07;10.88;;;26.70;99.90;;;;;;5014165;28;20037;-73
2021/06/08 12:18:44;;;;;;;13.68;10.02;;;26.80;99.90;;;;;;5013886;28;20045;-73
2021/06/08 12:21:14;;;;;;;10.48;9.27;;;26.90;99.90;;;;;;5012987;28;20475;-73
2021/06/08 12:23:41;;;;;;;10.07;9.10;;;26.90;99.90;;;;;;5013480;28;20030;-73
2021/06/08 12:26:10;;;;;;;7.38;6.68;;;27.00;99.90;;;;;;5012039;28;20026;-73
2021/06/08 12:28:41;;;;;;;11.35;8.13;;;27.50;99.90;;;;;;5009260;28;20033;-73
2021/06/08 12:31:12;;;;;;;9.57;8.68;;;27.70;99.90;;;;;;5008076;28;20489;-73
2021/06/08 12:33:37;;;;;;;10.85;9.80;;;27.80;99.90;;;;;;5007693;28;77030;-73
2021/06/08 12:36:05;;;;;;;10.43;8.77;;;27.90;98.00;;;;;;5009776;28;20022;-74
2021/06/08 12:38:31;;;;;;;10.15;9.25;;;27.90;99.90;;;;;;5009819;28;20562;-74
2021/06/08 12:41:03;;;;;;;11.40;8.18;;;27.80;99.90;;;;;;5009918;28;20120;-74
2021/06/08 12:43:53;;;;;;;10.38;8.10;;;27.40;99.90;;;;;;4998119;28;20100;-74
2021/06/08 12:46:29;;;;;;;10.40;9.02;;;27.30;99.80;;;;;;5009570;28;20018;-72
2021/06/08 12:49:12;;;;;;;9.70;8.00;;;26.90;97.90;;;;;;5012049;28;20355;-72
2021/06/08 12:51:40;;;;;;;8.52;7.20;;;26.90;98.80;;;;;;5011709;28;20198;-72
2021/06/08 12:54:09;;;;;;;9.70;7.32;;;26.90;99.70;;;;;;5010682;28;20018;-73